createdAt,value
2019-03-30T00:01:17.879Z,16.53
2019-03-30T00:03:44.305Z,13.73
2019-03-30T00:06:10.886Z,12.67
2019-03-30T00:08:37.240Z,18.57
2019-03-30T00:11:03.807Z,15.23
2019-03-30T00:13:30.372Z,11.73
2019-03-30T00:15:57.118Z,16.13
2019-03-30T00:18:23.471Z,13.33
2019-03-30T00:20:49.849Z,14.53
2019-03-30T00:23:16.245Z,16.43
2019-03-30T00:25:42.592Z,16.17
2019-03-30T00:28:09.008Z,16.23
2019-03-30T00:30:35.384Z,15.70
2019-03-30T00:33:01.953Z,15.07
2019-03-30T00:35:28.308Z,13.37
2019-03-30T00:37:54.678Z,13.40
2019-03-30T00:40:21.047Z,13.53
2019-03-30T00:42:47.711Z,15.40
2019-03-30T00:45:14.158Z,12.63
2019-03-30T00:47:40.569Z,14.83
2019-03-30T00:50:09.857Z,12.83
2019-03-30T00:52:36.223Z,15.33
2019-03-30T00:55:03.968Z,15.47
2019-03-30T00:57:30.377Z,16.40
2019-03-30T00:59:56.836Z,17.97
2019-03-30T01:02:23.328Z,15.47
2019-03-30T01:04:49.789Z,16.40
2019-03-30T01:07:16.280Z,15.43
2019-03-30T01:09:42.832Z,18.47
2019-03-30T01:12:10.698Z,14.63
2019-03-30T01:14:37.047Z,19.93
2019-03-30T01:17:04.163Z,14.67
2019-03-30T01:19:30.535Z,16.30
2019-03-30T01:21:56.984Z,15.27
2019-03-30T01:24:23.414Z,14.50
2019-03-30T01:26:49.786Z,16.07
2019-03-30T01:29:16.254Z,15.13
2019-03-30T01:31:42.723Z,13.30
2019-03-30T01:34:09.294Z,15.23
2019-03-30T01:36:35.665Z,14.23
2019-03-30T01:39:03.828Z,13.20
2019-03-30T01:41:30.280Z,15.17
2019-03-30T01:43:56.762Z,14.00
2019-03-30T01:46:23.114Z,15.83
2019-03-30T01:48:49.614Z,14.20
2019-03-30T01:51:16.181Z,16.17
2019-03-30T01:53:42.746Z,13.83
2019-03-30T01:56:09.099Z,14.10
2019-03-30T01:58:35.599Z,18.70
2019-03-30T02:01:02.120Z,15.10
2019-03-30T02:03:28.469Z,14.33
2019-03-30T02:05:54.827Z,17.13
2019-03-30T02:08:21.195Z,17.90
2019-03-30T02:10:47.645Z,16.07
2019-03-30T02:13:14.205Z,16.43
2019-03-30T02:15:40.679Z,16.73
2019-03-30T02:18:07.236Z,14.37
2019-03-30T02:20:35.530Z,16.40
2019-03-30T02:23:01.995Z,14.83
2019-03-30T02:25:28.399Z,17.87
2019-03-30T02:27:54.877Z,18.00
2019-03-30T02:30:21.363Z,17.40
2019-03-30T02:32:47.808Z,21.83
2019-03-30T02:35:14.287Z,16.30
2019-03-30T02:37:40.676Z,15.80
2019-03-30T02:40:07.390Z,16.27
2019-03-30T02:42:33.914Z,17.40
2019-03-30T02:45:00.562Z,15.60
2019-03-30T02:47:27.120Z,16.73
2019-03-30T02:49:53.685Z,17.20
2019-03-30T02:52:20.135Z,16.90
2019-03-30T02:54:46.532Z,15.73
2019-03-30T02:57:12.889Z,14.43
2019-03-30T02:59:39.367Z,14.07
2019-03-30T03:02:05.713Z,18.70
2019-03-30T03:04:32.070Z,15.10
2019-03-30T03:06:58.443Z,15.37
2019-03-30T03:09:24.926Z,13.87
2019-03-30T03:11:51.371Z,18.40
2019-03-30T03:14:17.856Z,15.43
2019-03-30T03:16:44.293Z,18.97
2019-03-30T03:19:10.671Z,16.33
2019-03-30T03:21:37.338Z,18.93
2019-03-30T03:24:03.817Z,14.73
2019-03-30T03:26:30.285Z,17.03
2019-03-30T03:28:56.741Z,16.57
2019-03-30T03:31:23.215Z,16.67
2019-03-30T03:33:49.808Z,16.67
2019-03-30T03:36:16.244Z,21.43
2019-03-30T03:38:42.801Z,15.20
2019-03-30T03:41:09.268Z,16.30
2019-03-30T03:43:35.727Z,15.00
2019-03-30T03:46:02.194Z,14.47
2019-03-30T03:48:28.540Z,15.70
2019-03-30T03:50:56.924Z,17.53
2019-03-30T03:53:23.519Z,18.13
2019-03-30T03:55:49.988Z,17.63
2019-03-30T03:58:16.635Z,19.03
2019-03-30T04:00:43.811Z,18.63
2019-03-30T04:03:10.260Z,17.50
2019-03-30T04:05:37.735Z,17.57
2019-03-30T04:08:04.405Z,19.03
2019-03-30T04:10:31.847Z,18.57
2019-03-30T04:13:00.202Z,13.53
2019-03-30T04:15:26.776Z,16.53
2019-03-30T04:17:53.133Z,17.10
2019-03-30T04:20:21.544Z,19.47
2019-03-30T04:22:47.905Z,17.07
2019-03-30T04:25:15.411Z,17.07
2019-03-30T04:27:42.189Z,14.83
2019-03-30T04:30:08.643Z,16.23
2019-03-30T04:32:36.677Z,18.67
2019-03-30T04:35:04.261Z,16.00
2019-03-30T04:37:30.827Z,15.43
2019-03-30T04:39:57.181Z,16.03
2019-03-30T04:42:23.681Z,16.70
2019-03-30T04:44:50.219Z,15.93
2019-03-30T04:47:16.696Z,18.83
2019-03-30T04:49:43.141Z,17.43
2019-03-30T04:52:09.610Z,16.37
2019-03-30T04:54:35.980Z,16.03
2019-03-30T04:57:02.443Z,21.37
2019-03-30T04:59:28.913Z,17.73
2019-03-30T05:01:55.480Z,19.80
2019-03-30T05:04:21.874Z,14.87
2019-03-30T05:06:48.424Z,15.73
2019-03-30T05:09:14.867Z,19.87
2019-03-30T05:11:41.441Z,17.93
2019-03-30T05:14:07.888Z,18.63
2019-03-30T05:16:34.275Z,21.27
2019-03-30T05:19:00.727Z,17.40
2019-03-30T05:21:27.088Z,17.27
2019-03-30T05:23:53.596Z,19.87
2019-03-30T05:26:20.040Z,15.83
2019-03-30T05:28:46.529Z,17.03
2019-03-30T05:31:12.871Z,14.53
2019-03-30T05:33:39.351Z,16.50
2019-03-30T05:36:05.705Z,17.13
2019-03-30T05:38:32.172Z,16.57
2019-03-30T05:40:58.623Z,16.30
2019-03-30T05:43:25.096Z,17.23
2019-03-30T05:45:51.661Z,13.13
2019-03-30T05:48:18.141Z,14.47
2019-03-30T05:50:44.597Z,15.23
2019-03-30T05:53:10.972Z,14.20
2019-03-30T05:55:37.531Z,13.60
2019-03-30T05:58:04.012Z,15.73
2019-03-30T06:00:30.571Z,16.63
2019-03-30T06:02:56.928Z,15.73
2019-03-30T06:05:23.389Z,16.90
2019-03-30T06:07:49.758Z,14.27
2019-03-30T06:10:16.207Z,18.07
2019-03-30T06:12:42.688Z,16.47
2019-03-30T06:15:09.142Z,19.40
2019-03-30T06:17:36.426Z,16.83
2019-03-30T06:20:04.212Z,15.23
2019-03-30T06:22:40.119Z,19.07
2019-03-30T06:24:59.031Z,16.27
2019-03-30T06:27:25.383Z,17.10
2019-03-30T06:29:53.740Z,17.80
2019-03-30T06:32:20.224Z,18.43
2019-03-30T06:34:46.685Z,15.37
2019-03-30T06:37:13.159Z,20.27
2019-03-30T06:39:39.521Z,14.67
2019-03-30T06:42:05.992Z,18.17
2019-03-30T06:44:32.367Z,14.50
2019-03-30T06:46:58.903Z,14.83
2019-03-30T06:49:25.442Z,15.17
2019-03-30T06:51:51.990Z,14.60
2019-03-30T06:54:18.574Z,15.03
2019-03-30T06:56:44.929Z,14.53
2019-03-30T06:59:11.507Z,14.07
2019-03-30T07:01:37.947Z,14.60
2019-03-30T07:04:04.428Z,15.23
2019-03-30T07:06:30.882Z,15.37
2019-03-30T07:08:57.963Z,14.70
2019-03-30T07:11:26.326Z,12.17
2019-03-30T07:13:54.598Z,13.33
2019-03-30T07:16:21.158Z,13.97
2019-03-30T07:18:49.540Z,15.27
2019-03-30T07:21:15.912Z,15.83
2019-03-30T07:23:42.509Z,20.47
2019-03-30T07:26:09.073Z,19.50
2019-03-30T07:28:35.456Z,18.73
2019-03-30T07:31:01.798Z,19.03
2019-03-30T07:33:28.271Z,15.53
2019-03-30T07:35:54.689Z,19.37
2019-03-30T07:38:21.180Z,18.27
2019-03-30T07:40:47.527Z,19.40
2019-03-30T07:43:14.024Z,18.47
2019-03-30T07:45:40.464Z,15.47
2019-03-30T07:48:07.044Z,18.70
2019-03-30T07:50:33.412Z,18.37
2019-03-30T07:52:59.882Z,17.40
2019-03-30T07:55:26.342Z,18.30
2019-03-30T07:57:52.748Z,17.00
2019-03-30T08:00:19.263Z,17.53
2019-03-30T08:02:45.745Z,19.60
2019-03-30T08:05:12.605Z,19.00
2019-03-30T08:07:39.203Z,20.90
2019-03-30T08:10:06.162Z,22.93
2019-03-30T08:12:32.541Z,21.10
2019-03-30T08:14:59.111Z,17.03
2019-03-30T08:17:25.464Z,18.97
2019-03-30T08:19:51.868Z,20.83
2019-03-30T08:22:18.260Z,17.70
2019-03-30T08:24:44.876Z,22.93
2019-03-30T08:27:11.336Z,19.23
2019-03-30T08:29:37.908Z,22.00
2019-03-30T08:32:04.365Z,19.53
2019-03-30T08:34:30.757Z,20.80
2019-03-30T08:36:59.274Z,20.00
2019-03-30T08:39:25.500Z,20.73
2019-03-30T08:41:51.971Z,19.57
2019-03-30T08:44:18.547Z,18.93
2019-03-30T08:46:44.899Z,20.43
2019-03-30T08:49:11.371Z,21.20
2019-03-30T08:51:37.789Z,21.15
2019-03-30T08:54:05.203Z,20.40
2019-03-30T08:56:31.567Z,21.33
2019-03-30T08:58:58.092Z,20.43
2019-03-30T09:01:24.484Z,20.77
2019-03-30T09:03:50.977Z,21.80
2019-03-30T09:06:17.433Z,24.17
2019-03-30T09:08:43.811Z,21.82
2019-03-30T09:11:10.253Z,21.45
2019-03-30T09:13:36.837Z,21.35
2019-03-30T09:16:03.418Z,20.50
2019-03-30T09:18:29.907Z,22.05
2019-03-30T09:20:56.299Z,20.95
2019-03-30T09:23:22.772Z,22.07
2019-03-30T09:25:49.459Z,21.23
2019-03-30T09:28:15.945Z,19.25
2019-03-30T09:30:42.548Z,20.85
2019-03-30T09:33:09.013Z,22.50
2019-03-30T09:35:35.475Z,22.35
2019-03-30T09:38:01.869Z,20.02
2019-03-30T09:40:28.460Z,21.20
2019-03-30T09:42:55.032Z,20.05
2019-03-30T09:45:21.513Z,21.75
2019-03-30T09:47:48.075Z,21.27
2019-03-30T09:50:14.604Z,21.93
2019-03-30T09:52:41.100Z,21.35
2019-03-30T09:55:07.491Z,20.92
2019-03-30T09:57:33.951Z,19.42
2019-03-30T10:00:00.431Z,18.17
2019-03-30T10:02:26.880Z,21.77
2019-03-30T10:04:53.482Z,20.95
2019-03-30T10:07:19.842Z,21.12
2019-03-30T10:09:47.441Z,17.37
2019-03-30T10:12:13.913Z,20.27
2019-03-30T10:14:40.504Z,25.50
2019-03-30T10:17:06.956Z,22.42
2019-03-30T10:19:33.428Z,18.48
2019-03-30T10:22:00.019Z,20.72
2019-03-30T10:24:37.571Z,22.13
2019-03-30T10:26:54.786Z,19.60
2019-03-30T10:29:21.198Z,17.02
2019-03-30T10:31:47.551Z,18.92
2019-03-30T10:34:14.045Z,20.43
2019-03-30T10:36:40.604Z,18.07
2019-03-30T10:39:07.060Z,15.88
2019-03-30T10:41:33.527Z,18.25
2019-03-30T10:43:59.991Z,18.62
2019-03-30T10:46:26.379Z,21.37
2019-03-30T10:48:52.746Z,20.95
2019-03-30T10:51:19.138Z,14.75
2019-03-30T10:53:45.491Z,19.98
2019-03-30T10:56:11.975Z,18.05
2019-03-30T10:58:38.538Z,15.83
2019-03-30T11:01:04.936Z,18.77
2019-03-30T11:03:31.471Z,16.52
2019-03-30T11:05:57.969Z,16.57
2019-03-30T11:08:24.414Z,20.48
2019-03-30T11:10:51.807Z,15.58
2019-03-30T11:13:18.198Z,15.13
2019-03-30T11:15:44.795Z,17.17
2019-03-30T11:18:11.165Z,16.82
2019-03-30T11:20:37.628Z,15.80
2019-03-30T11:23:04.122Z,15.35
2019-03-30T11:25:30.647Z,13.72
2019-03-30T11:27:56.999Z,15.25
2019-03-30T11:30:23.610Z,17.65
2019-03-30T11:32:50.730Z,16.02
2019-03-30T11:35:17.099Z,17.48
2019-03-30T11:37:43.666Z,19.62
2019-03-30T11:40:10.232Z,18.10
2019-03-30T11:42:36.697Z,47.70
2019-03-30T11:45:03.994Z,16.40
2019-03-30T11:47:30.457Z,16.77
2019-03-30T11:49:56.873Z,19.37
2019-03-30T11:52:23.406Z,18.50
2019-03-30T11:54:49.787Z,14.98
2019-03-30T11:57:16.244Z,17.12
2019-03-30T11:59:42.591Z,15.45
2019-03-30T12:02:09.086Z,13.65
2019-03-30T12:04:35.545Z,22.35
2019-03-30T12:07:02.156Z,12.63
2019-03-30T12:09:28.606Z,15.80
2019-03-30T12:11:55.085Z,14.80
2019-03-30T12:14:21.539Z,13.62
2019-03-30T12:16:48.223Z,14.55
2019-03-30T12:19:14.689Z,13.43
2019-03-30T12:21:41.177Z,14.15
2019-03-30T12:24:07.860Z,13.98
2019-03-30T12:26:34.362Z,12.13
2019-03-30T12:29:00.830Z,10.60
2019-03-30T12:31:27.201Z,11.97
2019-03-30T12:33:53.551Z,12.00
2019-03-30T12:36:19.911Z,11.05
2019-03-30T12:38:46.363Z,13.18
2019-03-30T12:41:12.734Z,15.50
2019-03-30T12:43:39.288Z,11.97
2019-03-30T12:46:05.839Z,12.78
2019-03-30T12:48:32.308Z,12.75
2019-03-30T12:50:58.811Z,12.58
2019-03-30T12:53:25.365Z,12.82
2019-03-30T12:55:51.855Z,22.07
2019-03-30T12:58:18.322Z,11.40
2019-03-30T13:00:44.710Z,10.63
2019-03-30T13:03:11.166Z,12.05
2019-03-30T13:05:37.622Z,14.23
2019-03-30T13:08:03.991Z,11.60
2019-03-30T13:10:30.590Z,13.72
2019-03-30T13:12:56.920Z,11.40
2019-03-30T13:15:23.391Z,9.73
2019-03-30T13:17:49.960Z,11.75
2019-03-30T13:20:16.421Z,9.78
2019-03-30T13:22:42.827Z,10.08
2019-03-30T13:25:09.339Z,8.35
2019-03-30T13:27:35.822Z,8.40
2019-03-30T13:30:03.885Z,9.48
2019-03-30T13:32:30.345Z,10.68
2019-03-30T13:34:56.701Z,9.90
2019-03-30T13:37:23.193Z,11.57
2019-03-30T13:39:49.579Z,11.43
2019-03-30T13:42:16.158Z,11.22
2019-03-30T13:44:42.521Z,11.05
2019-03-30T13:47:09.018Z,11.55
2019-03-30T13:49:35.376Z,10.85
2019-03-30T13:52:01.875Z,12.45
2019-03-30T13:54:28.272Z,12.45
2019-03-30T13:56:54.865Z,11.18
2019-03-30T13:59:21.241Z,15.48
2019-03-30T14:01:47.696Z,13.25
2019-03-30T14:04:14.142Z,12.90
2019-03-30T14:06:40.623Z,13.62
2019-03-30T14:09:06.971Z,11.40
2019-03-30T14:11:33.490Z,13.38
2019-03-30T14:13:59.939Z,11.15
2019-03-30T14:16:26.339Z,11.75
2019-03-30T14:18:52.792Z,11.33
2019-03-30T14:21:19.159Z,11.10
2019-03-30T14:23:45.677Z,13.05
2019-03-30T14:26:12.142Z,15.15
2019-03-30T14:28:38.655Z,13.80
2019-03-30T14:31:05.045Z,10.38
2019-03-30T14:33:31.519Z,11.10
2019-03-30T14:35:58.007Z,12.10
2019-03-30T14:38:24.388Z,12.43
2019-03-30T14:40:50.942Z,13.20
2019-03-30T14:43:17.526Z,12.45
2019-03-30T14:45:43.884Z,11.70
2019-03-30T14:48:10.465Z,10.65
2019-03-30T14:50:37.036Z,13.05
2019-03-30T14:53:03.704Z,12.43
2019-03-30T14:55:30.182Z,10.78
2019-03-30T14:57:56.749Z,10.70
2019-03-30T15:00:23.220Z,12.10
2019-03-30T15:02:49.943Z,12.88
2019-03-30T15:05:16.475Z,12.93
2019-03-30T15:07:42.878Z,13.03
2019-03-30T15:10:09.451Z,10.95
2019-03-30T15:12:36.445Z,12.07
2019-03-30T15:15:04.882Z,10.32
2019-03-30T15:17:31.288Z,10.58
2019-03-30T15:19:57.639Z,14.13
2019-03-30T15:22:24.086Z,15.32
2019-03-30T15:24:50.478Z,14.45
2019-03-30T15:27:17.056Z,14.25
2019-03-30T15:29:45.535Z,10.68
2019-03-30T15:32:12.058Z,11.80
2019-03-30T15:34:38.504Z,14.98
2019-03-30T15:37:04.890Z,11.03
2019-03-30T15:39:31.448Z,12.78
2019-03-30T15:41:58.130Z,13.43
2019-03-30T15:44:24.705Z,10.93
2019-03-30T15:46:51.285Z,12.75
2019-03-30T15:49:17.674Z,15.08
2019-03-30T15:51:44.031Z,10.95
2019-03-30T15:54:10.665Z,11.57
2019-03-30T15:56:37.281Z,10.78
2019-03-30T15:59:03.832Z,12.20
2019-03-30T16:01:30.432Z,10.78
2019-03-30T16:03:56.911Z,11.35
2019-03-30T16:06:23.377Z,11.75
2019-03-30T16:08:49.772Z,11.48
2019-03-30T16:11:16.166Z,11.88
2019-03-30T16:13:42.714Z,9.55
2019-03-30T16:16:09.143Z,11.55
2019-03-30T16:18:35.523Z,11.93
2019-03-30T16:21:02.079Z,11.48
2019-03-30T16:23:28.547Z,12.25
2019-03-30T16:25:54.959Z,12.13
2019-03-30T16:28:21.535Z,14.35
2019-03-30T16:30:47.999Z,12.53
2019-03-30T16:33:14.408Z,10.03
2019-03-30T16:35:40.976Z,7.25
2019-03-30T16:38:07.478Z,9.58
2019-03-30T16:40:34.142Z,10.40
2019-03-30T16:43:00.580Z,5.97
2019-03-30T16:45:27.148Z,7.17
2019-03-30T16:47:53.618Z,8.30
2019-03-30T16:50:20.118Z,10.53
2019-03-30T16:52:46.698Z,6.25
2019-03-30T16:55:13.170Z,8.33
2019-03-30T16:57:43.750Z,7.95
2019-03-30T17:00:08.325Z,8.83
2019-03-30T17:02:34.909Z,7.10
2019-03-30T17:05:01.661Z,10.48
2019-03-30T17:07:28.045Z,12.23
2019-03-30T17:09:54.495Z,12.33
2019-03-30T17:12:20.959Z,13.58
2019-03-30T17:14:47.343Z,18.50
2019-03-30T17:17:13.809Z,20.02
2019-03-30T17:19:40.351Z,19.80
2019-03-30T17:22:06.799Z,18.57
2019-03-30T17:24:33.264Z,28.38
2019-03-30T17:26:59.755Z,15.55
2019-03-30T17:29:26.131Z,10.48
2019-03-30T17:31:52.479Z,10.75
2019-03-30T17:34:18.881Z,8.03
2019-03-30T17:36:45.438Z,9.30
2019-03-30T17:39:12.210Z,9.20
2019-03-30T17:41:38.659Z,8.35
2019-03-30T17:44:05.200Z,11.27
2019-03-30T17:46:31.566Z,9.00
2019-03-30T17:48:58.128Z,6.50
2019-03-30T17:51:24.693Z,14.80
2019-03-30T17:53:51.346Z,11.97
2019-03-30T17:56:17.783Z,8.10
2019-03-30T17:58:44.246Z,10.65
2019-03-30T18:01:10.597Z,7.47
2019-03-30T18:03:37.027Z,9.43
2019-03-30T18:06:03.497Z,9.50
2019-03-30T18:08:29.967Z,10.23
2019-03-30T18:10:56.453Z,8.90
2019-03-30T18:13:22.929Z,59.33
2019-03-30T18:15:49.490Z,18.27
2019-03-30T18:18:15.963Z,22.07
2019-03-30T18:20:42.364Z,16.47
2019-03-30T18:23:08.912Z,13.03
2019-03-30T18:25:35.444Z,11.97
2019-03-30T18:28:01.901Z,9.20
2019-03-30T18:30:30.281Z,10.17
2019-03-30T18:32:56.732Z,11.40
2019-03-30T18:35:25.104Z,11.83
2019-03-30T18:37:51.654Z,14.90
2019-03-30T18:40:20.052Z,11.93
2019-03-30T18:42:46.512Z,9.93
2019-03-30T18:45:15.212Z,8.83
2019-03-30T18:47:41.766Z,12.50
2019-03-30T18:50:08.442Z,9.27
2019-03-30T18:52:34.899Z,10.97
2019-03-30T18:55:01.384Z,20.00
2019-03-30T18:57:27.751Z,20.33
2019-03-30T18:59:54.119Z,22.53
2019-03-30T19:02:20.694Z,17.87
2019-03-30T19:04:49.015Z,12.90
2019-03-30T19:07:15.367Z,12.47
2019-03-30T19:09:41.744Z,16.30
2019-03-30T19:12:08.301Z,12.47
2019-03-30T19:14:34.785Z,13.73
2019-03-30T19:17:01.148Z,12.13
2019-03-30T19:19:27.619Z,12.33
2019-03-30T19:21:54.067Z,13.37
2019-03-30T19:24:20.680Z,16.63
2019-03-30T19:26:47.181Z,13.80
2019-03-30T19:29:13.543Z,12.67
2019-03-30T19:31:40.129Z,14.20
2019-03-30T19:34:06.503Z,12.93
2019-03-30T19:36:33.017Z,13.33
2019-03-30T19:38:59.385Z,15.60
2019-03-30T19:41:25.880Z,12.10
2019-03-30T19:43:52.315Z,14.50
2019-03-30T19:46:18.799Z,15.90
2019-03-30T19:48:45.199Z,14.80
2019-03-30T19:51:11.632Z,19.70
2019-03-30T19:53:38.077Z,20.17
2019-03-30T19:56:04.959Z,18.27
2019-03-30T19:58:31.315Z,17.40
2019-03-30T20:00:57.789Z,18.60
2019-03-30T20:03:24.244Z,16.60
2019-03-30T20:05:50.716Z,19.53
2019-03-30T20:08:17.173Z,19.47
2019-03-30T20:10:43.639Z,22.57
2019-03-30T20:13:10.636Z,23.53
2019-03-30T20:15:37.096Z,21.27
2019-03-30T20:18:03.659Z,25.37
2019-03-30T20:20:30.257Z,22.87
2019-03-30T20:22:56.621Z,23.73
2019-03-30T20:25:25.869Z,20.50
2019-03-30T20:27:51.504Z,19.00
2019-03-30T20:30:18.394Z,20.40
2019-03-30T20:32:44.856Z,27.00
2019-03-30T20:35:11.351Z,23.60
2019-03-30T20:37:37.879Z,23.90
2019-03-30T20:40:05.369Z,20.83
2019-03-30T20:42:31.919Z,24.67
2019-03-30T20:44:58.373Z,21.77
2019-03-30T20:47:24.755Z,20.40
2019-03-30T20:49:51.108Z,20.73
2019-03-30T20:52:17.608Z,19.13
2019-03-30T20:54:44.188Z,17.17
2019-03-30T20:57:10.651Z,17.40
2019-03-30T20:59:40.261Z,24.67
2019-03-30T21:02:05.296Z,18.67
2019-03-30T21:04:31.643Z,18.83
2019-03-30T21:06:58.110Z,17.73
2019-03-30T21:09:24.541Z,21.37
2019-03-30T21:11:50.996Z,18.90
2019-03-30T21:14:17.573Z,18.53
2019-03-30T21:16:44.154Z,17.80
2019-03-30T21:19:10.591Z,18.40
2019-03-30T21:21:37.218Z,20.50
2019-03-30T21:24:03.664Z,17.23
2019-03-30T21:26:30.271Z,16.60
2019-03-30T21:28:56.719Z,20.00
2019-03-30T21:31:23.312Z,16.73
2019-03-30T21:33:49.763Z,21.77
2019-03-30T21:36:16.336Z,20.93
2019-03-30T21:38:42.778Z,24.27
2019-03-30T21:41:09.154Z,18.70
2019-03-30T21:43:35.624Z,19.57
2019-03-30T21:46:02.098Z,16.57
2019-03-30T21:48:28.439Z,19.40
2019-03-30T21:50:55.003Z,19.40
2019-03-30T21:53:21.481Z,20.23
2019-03-30T21:55:47.946Z,19.67
2019-03-30T21:58:14.433Z,20.17
2019-03-30T22:00:40.890Z,23.50
2019-03-30T22:03:07.628Z,22.00
2019-03-30T22:05:33.997Z,20.23
2019-03-30T22:08:01.009Z,19.73
2019-03-30T22:10:27.672Z,21.43
2019-03-30T22:12:54.163Z,22.07
2019-03-30T22:15:22.407Z,24.37
2019-03-30T22:17:48.801Z,25.20
2019-03-30T22:20:15.261Z,17.67
2019-03-30T22:22:41.727Z,21.60
2019-03-30T22:25:08.223Z,21.67
2019-03-30T22:27:34.704Z,21.47
2019-03-30T22:30:01.379Z,23.43
2019-03-30T22:32:27.910Z,22.10
2019-03-30T22:34:54.357Z,18.13
2019-03-30T22:37:20.941Z,22.10
2019-03-30T22:39:47.491Z,20.23
2019-03-30T22:42:13.960Z,22.37
2019-03-30T22:44:40.521Z,24.73
2019-03-30T22:47:06.972Z,22.07
2019-03-30T22:49:33.328Z,22.43
2019-03-30T22:51:59.713Z,20.07
2019-03-30T22:54:26.073Z,17.37
2019-03-30T22:56:52.419Z,20.40
2019-03-30T22:59:19.014Z,21.87
2019-03-30T23:01:45.557Z,19.27
2019-03-30T23:04:12.131Z,20.37
2019-03-30T23:06:38.593Z,19.27
2019-03-30T23:09:05.313Z,19.03
2019-03-30T23:11:31.771Z,22.27
2019-03-30T23:13:58.257Z,21.90
2019-03-30T23:16:24.827Z,21.17
2019-03-30T23:18:51.298Z,19.13
2019-03-30T23:21:17.643Z,21.30
2019-03-30T23:23:44.146Z,21.43
2019-03-30T23:26:10.681Z,19.23
2019-03-30T23:28:37.270Z,21.17
2019-03-30T23:31:03.843Z,21.97
2019-03-30T23:33:30.195Z,20.03
2019-03-30T23:35:56.646Z,22.80
2019-03-30T23:38:23.018Z,21.97
2019-03-30T23:40:49.471Z,22.40
2019-03-30T23:43:15.864Z,23.57
2019-03-30T23:45:42.311Z,24.77
2019-03-30T23:48:08.674Z,28.87
2019-03-30T23:50:35.139Z,22.87
2019-03-30T23:53:01.641Z,25.67
2019-03-30T23:55:28.193Z,21.73
2019-03-30T23:57:54.650Z,23.37
